createdAt,value
2022-12-19T00:02:45.442Z,39.03
2022-12-19T00:06:49.558Z,35.90
2022-12-19T00:10:56.414Z,37.53
2022-12-19T00:14:58.140Z,39.00
2022-12-19T00:19:01.631Z,39.45
2022-12-19T00:23:03.240Z,41.15
2022-12-19T00:27:05.069Z,37.80
2022-12-19T00:31:07.110Z,37.35
2022-12-19T00:35:09.229Z,38.92
2022-12-19T00:39:11.578Z,35.72
2022-12-19T00:43:13.215Z,40.28
2022-12-19T00:47:14.831Z,41.85
2022-12-19T00:51:20.053Z,40.00
2022-12-19T00:55:21.701Z,36.58
2022-12-19T00:59:26.820Z,38.03
2022-12-19T01:03:28.728Z,39.15
2022-12-19T01:07:30.348Z,40.50
2022-12-19T01:11:50.786Z,41.10
2022-12-19T01:15:52.495Z,36.47
2022-12-19T01:19:54.146Z,39.08
2022-12-19T01:23:55.844Z,41.03
2022-12-19T01:27:57.503Z,38.95
2022-12-19T01:31:59.190Z,39.25
2022-12-19T01:36:07.463Z,39.60
2022-12-19T01:40:11.446Z,39.00
2022-12-19T01:44:13.091Z,39.30
2022-12-19T01:48:30.587Z,37.47
2022-12-19T01:52:32.960Z,36.38
2022-12-19T01:56:38.641Z,39.80
2022-12-19T02:00:44.402Z,40.78
2022-12-19T02:04:47.761Z,37.65
2022-12-19T02:08:50.340Z,36.05
2022-12-19T02:12:52.174Z,39.10
2022-12-19T02:17:32.651Z,38.55
2022-12-19T02:21:47.505Z,34.80
2022-12-19T02:30:34.163Z,36.45
2022-12-19T02:35:11.564Z,39.38
2022-12-19T02:39:20.010Z,35.03
2022-12-19T02:43:23.817Z,36.58
2022-12-19T02:47:26.267Z,36.38
2022-12-19T02:51:27.935Z,29.17
2022-12-19T02:55:35.303Z,37.78
2022-12-19T03:00:03.484Z,37.63
2022-12-19T03:04:23.959Z,33.60
2022-12-19T03:08:32.479Z,35.63
2022-12-19T03:13:08.300Z,32.95
2022-12-19T03:17:10.266Z,32.58
2022-12-19T03:21:26.671Z,32.17
2022-12-19T03:25:30.526Z,31.67
2022-12-19T03:29:37.788Z,30.92
2022-12-19T03:33:41.300Z,31.83
2022-12-19T03:37:44.375Z,34.70
2022-12-19T03:42:05.015Z,35.92
2022-12-19T03:46:14.063Z,31.92
2022-12-19T03:50:16.077Z,31.60
2022-12-19T03:54:26.835Z,32.13
2022-12-19T03:58:33.810Z,31.98
2022-12-19T04:02:39.458Z,33.25
2022-12-19T04:06:43.571Z,33.45
2022-12-19T04:10:51.714Z,31.45
2022-12-19T04:14:53.399Z,31.10
2022-12-19T04:19:03.153Z,35.22
2022-12-19T04:23:07.057Z,39.15
2022-12-19T04:27:10.555Z,36.97
2022-12-19T04:31:15.172Z,29.25
2022-12-19T04:35:17.392Z,35.33
2022-12-19T04:39:19.130Z,31.62
2022-12-19T04:43:20.779Z,34.08
2022-12-19T04:47:22.609Z,35.22
2022-12-19T04:51:24.216Z,36.20
2022-12-19T04:55:25.855Z,35.15
2022-12-19T04:59:27.636Z,37.53
2022-12-19T05:03:29.568Z,40.50
2022-12-19T05:07:31.672Z,39.55
2022-12-19T05:11:33.342Z,40.72
2022-12-19T05:15:35.133Z,37.38
2022-12-19T05:19:36.784Z,40.55
2022-12-19T05:23:38.719Z,45.15
2022-12-19T05:27:40.413Z,42.00
2022-12-19T05:31:42.503Z,41.45
2022-12-19T05:35:44.220Z,40.72
2022-12-19T05:39:45.900Z,41.05
2022-12-19T05:43:55.495Z,39.85
2022-12-19T05:48:01.174Z,41.40
2022-12-19T05:52:03.239Z,41.45
2022-12-19T05:56:13.634Z,43.90
2022-12-19T06:00:16.360Z,43.25
2022-12-19T06:04:18.046Z,37.95
2022-12-19T06:08:19.656Z,47.72
2022-12-19T06:12:21.356Z,37.70
2022-12-19T06:16:23.586Z,39.55
2022-12-19T06:20:25.359Z,38.35
2022-12-19T06:24:27.156Z,42.40
2022-12-19T06:28:30.292Z,43.87
2022-12-19T06:32:36.310Z,41.65
2022-12-19T06:36:39.617Z,39.90
2022-12-19T06:41:03.594Z,37.58
2022-12-19T06:45:05.614Z,35.58
2022-12-19T06:49:07.973Z,36.97
2022-12-19T06:53:09.675Z,41.08
2022-12-19T06:57:11.476Z,39.03
2022-12-19T07:01:38.537Z,36.35
2022-12-19T07:05:40.678Z,35.88
2022-12-19T07:09:42.464Z,34.67
2022-12-19T07:13:44.089Z,37.05
2022-12-19T07:17:45.731Z,34.05
2022-12-19T07:21:47.746Z,35.25
2022-12-19T07:25:49.606Z,33.85
2022-12-19T07:29:51.261Z,32.17
2022-12-19T07:33:52.903Z,32.92
2022-12-19T07:37:54.595Z,30.67
2022-12-19T07:41:56.207Z,33.33
2022-12-19T07:45:57.869Z,31.05
2022-12-19T07:49:59.622Z,31.08
2022-12-19T07:54:01.295Z,25.92
2022-12-19T07:58:03.821Z,30.17
2022-12-19T08:02:05.891Z,33.97
2022-12-19T08:06:08.768Z,26.62
2022-12-19T08:10:14.979Z,26.55
2022-12-19T08:14:16.706Z,27.77
2022-12-19T08:18:18.381Z,29.77
2022-12-19T08:22:20.078Z,29.70
2022-12-19T08:26:25.623Z,27.02
2022-12-19T08:30:27.394Z,26.27
2022-12-19T08:34:29.324Z,30.62
2022-12-19T08:38:30.947Z,28.42
2022-12-19T08:42:33.455Z,27.30
2022-12-19T08:46:35.194Z,26.87
2022-12-19T08:50:36.956Z,28.87
2022-12-19T08:54:38.815Z,28.00
2022-12-19T08:58:40.649Z,26.05
2022-12-19T09:02:42.790Z,27.45
2022-12-19T09:06:44.719Z,26.40
2022-12-19T09:10:46.354Z,26.30
2022-12-19T09:14:48.095Z,27.67
2022-12-19T09:18:52.002Z,26.17
2022-12-19T09:22:53.774Z,32.80
2022-12-19T09:26:55.452Z,25.00
2022-12-19T09:31:01.537Z,24.58
2022-12-19T09:35:03.285Z,24.08
2022-12-19T09:39:04.939Z,28.33
2022-12-19T09:43:22.862Z,24.65
2022-12-19T09:47:30.524Z,21.95
2022-12-19T09:51:50.656Z,25.15
2022-12-19T09:55:53.842Z,26.55
2022-12-19T10:00:01.309Z,24.12
2022-12-19T10:04:12.339Z,24.95
2022-12-19T10:08:34.080Z,25.88
2022-12-19T10:13:12.829Z,21.92
2022-12-19T10:17:25.187Z,22.60
2022-12-19T10:22:16.458Z,25.17
2022-12-19T10:26:20.795Z,24.05
2022-12-19T10:30:23.426Z,23.17
2022-12-19T10:34:38.531Z,23.83
2022-12-19T10:39:09.021Z,23.75
2022-12-19T10:47:37.024Z,21.02
2022-12-19T10:51:38.849Z,21.42
2022-12-19T10:55:44.382Z,20.37
2022-12-19T10:59:59.993Z,19.92
2022-12-19T11:04:31.342Z,24.08
2022-12-19T11:08:37.095Z,20.83
2022-12-19T11:16:22.927Z,20.12
2022-12-19T11:23:08.313Z,21.70
2022-12-19T11:26:32.704Z,23.67
2022-12-19T11:29:38.396Z,22.08
2022-12-19T11:35:44.730Z,22.15
2022-12-19T11:40:04.021Z,20.42
2022-12-19T11:44:13.665Z,20.65
2022-12-19T11:48:49.710Z,20.65
2022-12-19T11:53:19.198Z,22.17
2022-12-19T11:57:21.271Z,22.73
2022-12-19T12:01:44.955Z,18.95
2022-12-19T12:05:49.288Z,19.00
2022-12-19T12:15:23.532Z,18.05
2022-12-19T12:26:19.094Z,20.58
2022-12-19T12:31:17.626Z,18.75
2022-12-19T12:31:18.864Z,18.33
2022-12-19T12:31:46.047Z,19.25
2022-12-19T12:35:34.423Z,17.50
2022-12-19T12:38:27.098Z,21.48
2022-12-19T12:42:32.405Z,15.18
2022-12-19T12:46:49.877Z,17.08
2022-12-19T12:50:55.346Z,18.85
2022-12-19T12:54:57.993Z,16.55
2022-12-19T12:59:22.950Z,18.12
2022-12-19T13:03:27.877Z,16.67
2022-12-19T13:07:42.786Z,15.73
2022-12-19T13:12:09.193Z,15.52
2022-12-19T13:16:44.976Z,14.18
2022-12-19T13:20:48.001Z,15.15
2022-12-19T13:24:54.249Z,17.52
2022-12-19T13:29:26.958Z,16.63
2022-12-19T13:33:56.429Z,16.00
2022-12-19T13:39:49.183Z,15.73
2022-12-19T13:43:26.040Z,14.23
2022-12-19T13:47:36.102Z,14.90
2022-12-19T13:51:51.238Z,13.23
2022-12-19T13:56:12.916Z,12.37
2022-12-19T14:00:20.633Z,15.35
2022-12-19T14:04:25.240Z,14.90
2022-12-19T14:08:28.711Z,15.60
2022-12-19T14:13:47.435Z,13.90
2022-12-19T14:17:22.192Z,14.25
2022-12-19T14:22:08.803Z,15.98
2022-12-19T14:28:21.289Z,13.20
2022-12-19T14:30:31.107Z,13.07
2022-12-19T14:35:31.383Z,14.52
2022-12-19T14:39:24.576Z,12.50
2022-12-19T14:50:02.451Z,14.73
2022-12-19T14:54:12.113Z,12.90
2022-12-19T14:54:22.085Z,13.80
2022-12-19T14:57:02.639Z,12.85
2022-12-19T15:01:22.980Z,13.23
2022-12-19T15:05:26.102Z,10.43
2022-12-19T15:11:04.265Z,12.98
2022-12-19T15:14:51.285Z,13.32
2022-12-19T15:18:32.870Z,13.13
2022-12-19T15:22:34.612Z,11.37
2022-12-19T15:26:47.506Z,12.13
2022-12-19T15:31:02.155Z,11.98
2022-12-19T15:35:15.894Z,11.38
2022-12-19T15:39:18.492Z,11.27
2022-12-19T15:44:01.233Z,9.35
2022-12-19T15:47:45.094Z,10.70
2022-12-19T15:51:47.039Z,12.45
2022-12-19T15:55:49.540Z,11.68
2022-12-19T15:59:51.783Z,11.93
2022-12-19T16:03:53.958Z,11.80
2022-12-19T16:07:56.849Z,10.27
2022-12-19T16:11:58.823Z,11.32
2022-12-19T16:16:01.352Z,12.65
2022-12-19T16:20:03.199Z,11.02
2022-12-19T16:24:05.090Z,12.10
2022-12-19T16:28:13.745Z,11.32
2022-12-19T16:32:15.827Z,10.13
2022-12-19T16:36:17.525Z,10.77
2022-12-19T16:40:28.135Z,7.85
2022-12-19T16:44:32.751Z,8.98
2022-12-19T16:48:35.815Z,8.85
2022-12-19T16:52:42.454Z,7.57
2022-12-19T16:56:53.710Z,8.40
2022-12-19T17:00:56.547Z,8.88
2022-12-19T17:04:58.724Z,8.98
2022-12-19T17:09:00.325Z,8.30
2022-12-19T17:13:03.124Z,7.68
2022-12-19T17:17:05.193Z,7.18
2022-12-19T17:21:07.109Z,11.35
2022-12-19T17:25:26.258Z,7.97
2022-12-19T17:29:27.898Z,8.45
2022-12-19T17:33:36.478Z,9.50
2022-12-19T17:37:38.103Z,8.68
2022-12-19T17:41:39.748Z,9.27
2022-12-19T17:45:41.748Z,8.05
2022-12-19T17:49:43.655Z,7.82
2022-12-19T17:53:46.399Z,7.80
2022-12-19T17:57:48.982Z,8.52
2022-12-19T18:01:50.885Z,11.93
2022-12-19T18:05:55.199Z,7.43
2022-12-19T18:09:57.317Z,10.43
2022-12-19T18:13:58.982Z,8.65
2022-12-19T18:18:00.584Z,8.85
2022-12-19T18:22:02.272Z,9.68
2022-12-19T18:26:03.897Z,7.47
2022-12-19T18:30:06.294Z,7.90
2022-12-19T18:34:13.071Z,10.20
2022-12-19T18:38:25.458Z,7.22
2022-12-19T18:42:27.903Z,10.18
2022-12-19T18:46:30.086Z,9.35
2022-12-19T18:50:31.881Z,7.45
2022-12-19T18:54:33.515Z,7.82
2022-12-19T18:58:35.289Z,7.07
2022-12-19T19:02:37.286Z,6.82
2022-12-19T19:06:42.160Z,7.47
2022-12-19T19:10:51.386Z,8.95
2022-12-19T19:14:53.551Z,9.27
2022-12-19T19:18:57.001Z,6.53
2022-12-19T19:22:59.333Z,6.68
2022-12-19T19:27:00.930Z,6.68
2022-12-19T19:31:02.918Z,7.07
2022-12-19T19:35:06.732Z,7.50
2022-12-19T19:39:08.507Z,7.72
2022-12-19T19:43:10.207Z,8.40
2022-12-19T19:47:12.633Z,7.70
2022-12-19T19:51:17.627Z,9.13
2022-12-19T19:55:19.578Z,6.93
2022-12-19T19:59:21.355Z,7.18
2022-12-19T20:03:23.991Z,8.05
2022-12-19T20:07:26.063Z,8.30
2022-12-19T20:11:27.833Z,6.72
2022-12-19T20:15:29.584Z,7.45
2022-12-19T20:19:31.707Z,6.32
2022-12-19T20:23:33.326Z,7.53
2022-12-19T20:27:35.074Z,6.95
2022-12-19T20:31:36.884Z,6.40
2022-12-19T20:35:38.781Z,8.60
2022-12-19T20:39:40.595Z,6.62
2022-12-19T20:43:42.488Z,6.10
2022-12-19T20:47:44.189Z,7.40
2022-12-19T20:51:47.586Z,7.47
2022-12-19T20:55:58.728Z,6.07
2022-12-19T21:00:00.482Z,5.37
2022-12-19T21:04:02.301Z,7.75
2022-12-19T21:08:04.095Z,5.90
2022-12-19T21:12:05.809Z,7.05
2022-12-19T21:16:10.955Z,7.72
2022-12-19T21:20:14.930Z,6.78
2022-12-19T21:24:16.599Z,5.93
2022-12-19T21:28:18.838Z,5.00
2022-12-19T21:32:20.619Z,6.47
2022-12-19T21:36:23.723Z,7.85
2022-12-19T21:40:25.323Z,4.95
2022-12-19T21:44:26.921Z,6.20
2022-12-19T21:48:28.576Z,5.37
2022-12-19T21:52:30.205Z,5.18
2022-12-19T21:56:38.649Z,7.15
2022-12-19T22:00:40.293Z,5.80
2022-12-19T22:04:42.199Z,7.15
2022-12-19T22:08:45.020Z,6.80
2022-12-19T22:12:46.676Z,8.27
2022-12-19T22:16:48.456Z,6.45
2022-12-19T22:20:50.330Z,4.75
2022-12-19T22:24:51.944Z,5.40
2022-12-19T22:28:55.868Z,5.87
2022-12-19T22:32:57.513Z,4.97
2022-12-19T22:36:59.277Z,4.78
2022-12-19T22:41:04.700Z,5.62
2022-12-19T22:45:06.955Z,5.65
2022-12-19T22:49:08.946Z,4.72
2022-12-19T22:53:12.847Z,3.95
2022-12-19T22:57:15.388Z,4.30
2022-12-19T23:01:26.182Z,4.43
2022-12-19T23:05:27.921Z,7.37
2022-12-19T23:09:29.570Z,4.85
2022-12-19T23:13:31.239Z,5.00
2022-12-19T23:17:32.857Z,4.03
2022-12-19T23:21:35.496Z,4.80
2022-12-19T23:25:38.889Z,3.90
2022-12-19T23:29:40.543Z,4.85
2022-12-19T23:33:42.207Z,3.17
2022-12-19T23:37:44.104Z,2.78
2022-12-19T23:41:45.718Z,2.67
2022-12-19T23:45:47.564Z,3.05
2022-12-19T23:49:49.285Z,5.68
2022-12-19T23:53:52.072Z,4.32
2022-12-19T23:57:53.780Z,2.70
